sensor_id;sensor_type;location;lat;lon;timestamp;P1;durP1;ratioP1;P2;durP2;ratioP2
43700;SDS011;58809;47.984;7.964;2022-07-19T00:02:55;6.07;;;4.80;;
43700;SDS011;58809;47.984;7.964;2022-07-19T00:05:56;5.40;;;4.85;;
43700;SDS011;58809;47.984;7.964;2022-07-19T00:08:58;6.10;;;4.60;;
43700;SDS011;58809;47.984;7.964;2022-07-19T00:12:00;5.00;;;4.50;;
43700;SDS011;58809;47.984;7.964;2022-07-19T00:15:03;6.03;;;4.72;;
43700;SDS011;58809;47.984;7.964;2022-07-19T00:18:06;6.10;;;4.80;;
43700;SDS011;58809;47.984;7.964;2022-07-19T00:21:07;6.07;;;4.78;;
43700;SDS011;58809;47.984;7.964;2022-07-19T00:24:09;5.45;;;4.65;;
43700;SDS011;58809;47.984;7.964;2022-07-19T00:27:10;7.13;;;5.00;;
43700;SDS011;58809;47.984;7.964;2022-07-19T00:30:13;6.18;;;4.88;;
43700;SDS011;58809;47.984;7.964;2022-07-19T00:33:14;5.68;;;4.78;;
43700;SDS011;58809;47.984;7.964;2022-07-19T00:36:16;5.72;;;4.45;;
43700;SDS011;58809;47.984;7.964;2022-07-19T00:39:18;5.13;;;4.18;;
43700;SDS011;58809;47.984;7.964;2022-07-19T00:42:20;4.60;;;4.15;;
43700;SDS011;58809;47.984;7.964;2022-07-19T00:45:21;5.32;;;4.40;;
43700;SDS011;58809;47.984;7.964;2022-07-19T00:48:23;5.70;;;5.00;;
43700;SDS011;58809;47.984;7.964;2022-07-19T00:51:25;5.15;;;4.35;;
43700;SDS011;58809;47.984;7.964;2022-07-19T00:54:26;6.07;;;4.68;;
43700;SDS011;58809;47.984;7.964;2022-07-19T00:57:29;4.95;;;4.30;;
43700;SDS011;58809;47.984;7.964;2022-07-19T01:00:33;6.30;;;4.50;;
43700;SDS011;58809;47.984;7.964;2022-07-19T01:03:36;6.50;;;4.40;;
43700;SDS011;58809;47.984;7.964;2022-07-19T01:06:40;5.47;;;4.45;;
43700;SDS011;58809;47.984;7.964;2022-07-19T01:09:42;5.65;;;4.72;;
43700;SDS011;58809;47.984;7.964;2022-07-19T01:12:45;7.15;;;4.70;;
43700;SDS011;58809;47.984;7.964;2022-07-19T01:15:46;5.47;;;4.60;;
43700;SDS011;58809;47.984;7.964;2022-07-19T01:18:48;5.53;;;4.30;;
43700;SDS011;58809;47.984;7.964;2022-07-19T01:21:52;4.95;;;4.45;;
43700;SDS011;58809;47.984;7.964;2022-07-19T01:24:53;5.82;;;5.18;;
43700;SDS011;58809;47.984;7.964;2022-07-19T01:27:55;6.05;;;4.85;;
43700;SDS011;58809;47.984;7.964;2022-07-19T01:30:56;5.70;;;5.07;;
43700;SDS011;58809;47.984;7.964;2022-07-19T01:33:58;5.13;;;4.15;;
43700;SDS011;58809;47.984;7.964;2022-07-19T01:36:59;5.05;;;4.18;;
43700;SDS011;58809;47.984;7.964;2022-07-19T01:40:02;6.30;;;4.50;;
43700;SDS011;58809;47.984;7.964;2022-07-19T01:43:04;5.88;;;4.63;;
43700;SDS011;58809;47.984;7.964;2022-07-19T01:46:08;4.93;;;4.38;;
43700;SDS011;58809;47.984;7.964;2022-07-19T01:49:09;6.38;;;4.53;;
43700;SDS011;58809;47.984;7.964;2022-07-19T01:52:11;5.63;;;4.60;;
43700;SDS011;58809;47.984;7.964;2022-07-19T01:55:12;4.90;;;4.40;;
43700;SDS011;58809;47.984;7.964;2022-07-19T01:58:14;5.30;;;4.40;;
43700;SDS011;58809;47.984;7.964;2022-07-19T02:01:16;6.20;;;4.50;;
43700;SDS011;58809;47.984;7.964;2022-07-19T02:04:17;5.22;;;4.47;;
43700;SDS011;58809;47.984;7.964;2022-07-19T02:07:19;6.32;;;4.78;;
43700;SDS011;58809;47.984;7.964;2022-07-19T02:10:21;6.43;;;5.07;;
43700;SDS011;58809;47.984;7.964;2022-07-19T02:13:22;5.88;;;4.85;;
43700;SDS011;58809;47.984;7.964;2022-07-19T02:16:24;5.18;;;4.60;;
43700;SDS011;58809;47.984;7.964;2022-07-19T02:19:25;5.72;;;4.20;;
43700;SDS011;58809;47.984;7.964;2022-07-19T02:22:27;8.02;;;4.20;;
43700;SDS011;58809;47.984;7.964;2022-07-19T02:25:28;7.43;;;4.47;;
43700;SDS011;58809;47.984;7.964;2022-07-19T02:28:30;7.95;;;4.40;;
43700;SDS011;58809;47.984;7.964;2022-07-19T02:31:32;5.55;;;4.05;;
43700;SDS011;58809;47.984;7.964;2022-07-19T02:34:34;4.95;;;4.00;;
43700;SDS011;58809;47.984;7.964;2022-07-19T02:37:36;5.18;;;4.13;;
43700;SDS011;58809;47.984;7.964;2022-07-19T02:40:39;8.20;;;4.38;;
43700;SDS011;58809;47.984;7.964;2022-07-19T02:43:41;5.82;;;4.20;;
43700;SDS011;58809;47.984;7.964;2022-07-19T02:46:43;6.78;;;3.90;;
43700;SDS011;58809;47.984;7.964;2022-07-19T02:49:44;5.15;;;4.00;;
43700;SDS011;58809;47.984;7.964;2022-07-19T02:52:46;4.75;;;4.13;;
43700;SDS011;58809;47.984;7.964;2022-07-19T02:55:47;6.50;;;4.20;;
43700;SDS011;58809;47.984;7.964;2022-07-19T02:58:49;5.93;;;4.32;;
43700;SDS011;58809;47.984;7.964;2022-07-19T03:01:51;7.22;;;4.07;;
43700;SDS011;58809;47.984;7.964;2022-07-19T03:04:52;4.72;;;4.03;;
43700;SDS011;58809;47.984;7.964;2022-07-19T03:07:54;5.50;;;3.85;;
43700;SDS011;58809;47.984;7.964;2022-07-19T03:10:56;5.82;;;4.20;;
43700;SDS011;58809;47.984;7.964;2022-07-19T03:13:57;4.25;;;3.85;;
43700;SDS011;58809;47.984;7.964;2022-07-19T03:16:59;5.38;;;4.10;;
43700;SDS011;58809;47.984;7.964;2022-07-19T03:20:01;6.45;;;4.55;;
43700;SDS011;58809;47.984;7.964;2022-07-19T03:23:03;4.40;;;3.95;;
43700;SDS011;58809;47.984;7.964;2022-07-19T03:26:05;8.05;;;4.13;;
43700;SDS011;58809;47.984;7.964;2022-07-19T03:29:07;5.55;;;4.30;;
43700;SDS011;58809;47.984;7.964;2022-07-19T03:32:08;5.43;;;4.07;;
43700;SDS011;58809;47.984;7.964;2022-07-19T03:35:10;6.63;;;4.18;;
43700;SDS011;58809;47.984;7.964;2022-07-19T03:38:12;6.97;;;4.40;;
43700;SDS011;58809;47.984;7.964;2022-07-19T03:41:15;8.68;;;4.63;;
43700;SDS011;58809;47.984;7.964;2022-07-19T03:44:16;6.28;;;4.38;;
43700;SDS011;58809;47.984;7.964;2022-07-19T03:47:18;6.60;;;4.35;;
43700;SDS011;58809;47.984;7.964;2022-07-19T03:50:19;8.20;;;5.43;;
43700;SDS011;58809;47.984;7.964;2022-07-19T03:53:21;7.13;;;4.60;;
43700;SDS011;58809;47.984;7.964;2022-07-19T03:56:23;9.68;;;6.13;;
43700;SDS011;58809;47.984;7.964;2022-07-19T03:59:24;7.80;;;5.38;;
43700;SDS011;58809;47.984;7.964;2022-07-19T04:02:26;8.45;;;5.38;;
43700;SDS011;58809;47.984;7.964;2022-07-19T04:05:28;6.50;;;4.88;;
43700;SDS011;58809;47.984;7.964;2022-07-19T04:08:29;9.73;;;5.47;;
43700;SDS011;58809;47.984;7.964;2022-07-19T04:11:37;6.35;;;4.60;;
43700;SDS011;58809;47.984;7.964;2022-07-19T04:14:38;4.95;;;4.10;;
43700;SDS011;58809;47.984;7.964;2022-07-19T04:17:40;6.97;;;4.30;;
43700;SDS011;58809;47.984;7.964;2022-07-19T04:20:41;7.63;;;4.65;;
43700;SDS011;58809;47.984;7.964;2022-07-19T04:23:43;4.85;;;3.95;;
43700;SDS011;58809;47.984;7.964;2022-07-19T04:26:44;7.45;;;4.28;;
43700;SDS011;58809;47.984;7.964;2022-07-19T04:29:46;5.53;;;3.92;;
43700;SDS011;58809;47.984;7.964;2022-07-19T04:32:47;7.38;;;3.80;;
43700;SDS011;58809;47.984;7.964;2022-07-19T04:35:49;7.22;;;4.32;;
43700;SDS011;58809;47.984;7.964;2022-07-19T04:38:51;7.20;;;4.57;;
43700;SDS011;58809;47.984;7.964;2022-07-19T04:41:52;6.65;;;4.88;;
43700;SDS011;58809;47.984;7.964;2022-07-19T04:44:54;8.55;;;4.75;;
43700;SDS011;58809;47.984;7.964;2022-07-19T04:47:55;7.85;;;4.00;;
43700;SDS011;58809;47.984;7.964;2022-07-19T04:50:57;8.02;;;4.30;;
43700;SDS011;58809;47.984;7.964;2022-07-19T04:53:59;6.55;;;4.05;;
43700;SDS011;58809;47.984;7.964;2022-07-19T04:57:00;6.15;;;4.60;;
43700;SDS011;58809;47.984;7.964;2022-07-19T05:00:06;9.40;;;4.78;;
43700;SDS011;58809;47.984;7.964;2022-07-19T05:03:10;8.40;;;4.38;;
43700;SDS011;58809;47.984;7.964;2022-07-19T05:06:12;6.50;;;4.90;;
43700;SDS011;58809;47.984;7.964;2022-07-19T05:09:13;4.65;;;4.10;;
43700;SDS011;58809;47.984;7.964;2022-07-19T05:12:18;7.38;;;4.38;;
43700;SDS011;58809;47.984;7.964;2022-07-19T05:15:20;6.93;;;4.45;;
43700;SDS011;58809;47.984;7.964;2022-07-19T05:18:21;5.20;;;4.15;;
43700;SDS011;58809;47.984;7.964;2022-07-19T05:21:23;5.47;;;4.43;;
43700;SDS011;58809;47.984;7.964;2022-07-19T05:24:25;5.82;;;4.13;;
43700;SDS011;58809;47.984;7.964;2022-07-19T05:27:26;7.00;;;4.38;;
43700;SDS011;58809;47.984;7.964;2022-07-19T05:30:28;9.10;;;4.93;;
43700;SDS011;58809;47.984;7.964;2022-07-19T05:33:30;9.07;;;4.88;;
43700;SDS011;58809;47.984;7.964;2022-07-19T05:36:32;14.77;;;4.85;;
43700;SDS011;58809;47.984;7.964;2022-07-19T05:39:34;10.15;;;4.40;;
43700;SDS011;58809;47.984;7.964;2022-07-19T05:42:36;8.13;;;4.43;;
43700;SDS011;58809;47.984;7.964;2022-07-19T05:45:37;8.95;;;4.45;;
43700;SDS011;58809;47.984;7.964;2022-07-19T05:48:39;6.07;;;4.55;;
43700;SDS011;58809;47.984;7.964;2022-07-19T05:51:40;7.50;;;4.55;;
43700;SDS011;58809;47.984;7.964;2022-07-19T05:54:42;5.80;;;4.20;;
43700;SDS011;58809;47.984;7.964;2022-07-19T05:57:43;10.73;;;4.38;;
43700;SDS011;58809;47.984;7.964;2022-07-19T06:00:45;7.80;;;4.45;;
43700;SDS011;58809;47.984;7.964;2022-07-19T06:04:07;8.35;;;4.63;;
43700;SDS011;58809;47.984;7.964;2022-07-19T06:07:09;5.97;;;4.35;;
43700;SDS011;58809;47.984;7.964;2022-07-19T06:10:10;6.38;;;4.80;;
43700;SDS011;58809;47.984;7.964;2022-07-19T06:13:12;9.18;;;4.60;;
43700;SDS011;58809;47.984;7.964;2022-07-19T06:16:13;7.47;;;4.30;;
43700;SDS011;58809;47.984;7.964;2022-07-19T06:19:15;6.85;;;4.32;;
43700;SDS011;58809;47.984;7.964;2022-07-19T06:22:17;7.93;;;4.80;;
43700;SDS011;58809;47.984;7.964;2022-07-19T06:25:18;4.88;;;3.97;;
43700;SDS011;58809;47.984;7.964;2022-07-19T06:28:20;4.72;;;3.85;;
43700;SDS011;58809;47.984;7.964;2022-07-19T06:31:21;6.68;;;4.20;;
43700;SDS011;58809;47.984;7.964;2022-07-19T06:34:24;6.68;;;4.25;;
43700;SDS011;58809;47.984;7.964;2022-07-19T06:37:25;5.85;;;3.90;;
43700;SDS011;58809;47.984;7.964;2022-07-19T06:40:27;5.03;;;4.18;;
43700;SDS011;58809;47.984;7.964;2022-07-19T06:43:29;5.63;;;3.92;;
43700;SDS011;58809;47.984;7.964;2022-07-19T06:46:31;4.32;;;3.90;;
43700;SDS011;58809;47.984;7.964;2022-07-19T06:49:32;5.20;;;3.90;;
43700;SDS011;58809;47.984;7.964;2022-07-19T06:52:34;4.13;;;3.70;;
43700;SDS011;58809;47.984;7.964;2022-07-19T06:55:36;4.45;;;3.88;;
43700;SDS011;58809;47.984;7.964;2022-07-19T06:58:37;5.45;;;4.07;;
43700;SDS011;58809;47.984;7.964;2022-07-19T07:01:42;4.75;;;3.80;;
43700;SDS011;58809;47.984;7.964;2022-07-19T07:04:44;5.55;;;3.60;;
43700;SDS011;58809;47.984;7.964;2022-07-19T07:07:46;4.70;;;3.87;;
43700;SDS011;58809;47.984;7.964;2022-07-19T07:10:50;4.43;;;3.75;;
43700;SDS011;58809;47.984;7.964;2022-07-19T07:13:51;4.38;;;3.60;;
43700;SDS011;58809;47.984;7.964;2022-07-19T07:16:53;4.00;;;3.60;;
43700;SDS011;58809;47.984;7.964;2022-07-19T07:19:54;4.50;;;3.60;;
43700;SDS011;58809;47.984;7.964;2022-07-19T07:22:57;4.68;;;3.50;;
43700;SDS011;58809;47.984;7.964;2022-07-19T07:25:59;4.32;;;3.67;;
43700;SDS011;58809;47.984;7.964;2022-07-19T07:29:01;4.93;;;4.30;;
43700;SDS011;58809;47.984;7.964;2022-07-19T07:32:03;4.53;;;3.75;;
43700;SDS011;58809;47.984;7.964;2022-07-19T07:35:05;5.75;;;3.97;;
43700;SDS011;58809;47.984;7.964;2022-07-19T07:38:07;7.70;;;4.20;;
43700;SDS011;58809;47.984;7.964;2022-07-19T09:19:37;8.02;;;4.68;;
43700;SDS011;58809;47.984;7.964;2022-07-19T09:22:40;5.90;;;3.78;;
43700;SDS011;58809;47.984;7.964;2022-07-19T09:25:56;6.50;;;4.18;;
43700;SDS011;58809;47.984;7.964;2022-07-19T09:29:17;4.93;;;3.80;;
43700;SDS011;58809;47.984;7.964;2022-07-19T09:32:20;7.55;;;4.60;;
43700;SDS011;58809;47.984;7.964;2022-07-19T09:35:22;5.20;;;3.97;;
43700;SDS011;58809;47.984;7.964;2022-07-19T09:38:36;6.68;;;4.20;;
43700;SDS011;58809;47.984;7.964;2022-07-19T09:41:38;5.22;;;4.20;;
43700;SDS011;58809;47.984;7.964;2022-07-19T09:44:59;6.07;;;4.68;;
43700;SDS011;58809;47.984;7.964;2022-07-19T09:48:03;6.28;;;4.20;;
43700;SDS011;58809;47.984;7.964;2022-07-19T09:51:05;7.05;;;4.38;;
43700;SDS011;58809;47.984;7.964;2022-07-19T09:54:07;5.05;;;4.20;;
43700;SDS011;58809;47.984;7.964;2022-07-19T09:57:13;6.05;;;4.25;;
43700;SDS011;58809;47.984;7.964;2022-07-19T10:00:21;6.22;;;4.55;;
43700;SDS011;58809;47.984;7.964;2022-07-19T10:03:23;6.43;;;4.10;;
43700;SDS011;58809;47.984;7.964;2022-07-19T10:06:25;5.72;;;4.15;;
43700;SDS011;58809;47.984;7.964;2022-07-19T10:09:27;5.10;;;4.00;;
43700;SDS011;58809;47.984;7.964;2022-07-19T10:12:30;6.43;;;4.40;;
43700;SDS011;58809;47.984;7.964;2022-07-19T10:15:34;5.50;;;4.25;;
43700;SDS011;58809;47.984;7.964;2022-07-19T10:18:40;8.57;;;4.88;;
43700;SDS011;58809;47.984;7.964;2022-07-19T10:21:52;6.75;;;3.70;;
43700;SDS011;58809;47.984;7.964;2022-07-19T10:24:56;5.88;;;4.20;;
43700;SDS011;58809;47.984;7.964;2022-07-19T10:27:57;5.30;;;4.05;;
43700;SDS011;58809;47.984;7.964;2022-07-19T10:34:26;4.35;;;3.70;;
43700;SDS011;58809;47.984;7.964;2022-07-19T10:37:41;6.50;;;4.03;;
43700;SDS011;58809;47.984;7.964;2022-07-19T10:40:52;6.15;;;4.43;;
43700;SDS011;58809;47.984;7.964;2022-07-19T10:44:07;6.03;;;4.40;;
43700;SDS011;58809;47.984;7.964;2022-07-19T10:47:14;5.63;;;4.30;;
43700;SDS011;58809;47.984;7.964;2022-07-19T10:50:16;10.10;;;4.18;;
43700;SDS011;58809;47.984;7.964;2022-07-19T10:56:54;6.20;;;4.05;;
43700;SDS011;58809;47.984;7.964;2022-07-19T10:59:58;5.82;;;3.95;;
43700;SDS011;58809;47.984;7.964;2022-07-19T11:06:27;7.72;;;4.18;;
43700;SDS011;58809;47.984;7.964;2022-07-19T11:09:42;6.28;;;4.38;;
43700;SDS011;58809;47.984;7.964;2022-07-19T11:12:43;7.85;;;4.47;;
43700;SDS011;58809;47.984;7.964;2022-07-19T11:15:55;5.70;;;4.43;;
43700;SDS011;58809;47.984;7.964;2022-07-19T11:20:36;5.15;;;3.85;;
43700;SDS011;58809;47.984;7.964;2022-07-19T11:23:39;5.93;;;3.85;;
43700;SDS011;58809;47.984;7.964;2022-07-19T11:26:41;6.57;;;4.50;;
43700;SDS011;58809;47.984;7.964;2022-07-19T11:29:54;7.85;;;4.00;;
43700;SDS011;58809;47.984;7.964;2022-07-19T11:32:59;6.93;;;4.10;;
43700;SDS011;58809;47.984;7.964;2022-07-19T11:36:03;5.40;;;4.05;;
43700;SDS011;58809;47.984;7.964;2022-07-19T11:39:05;5.90;;;3.97;;
43700;SDS011;58809;47.984;7.964;2022-07-19T11:42:08;6.40;;;4.30;;
43700;SDS011;58809;47.984;7.964;2022-07-19T11:45:10;9.15;;;4.07;;
43700;SDS011;58809;47.984;7.964;2022-07-19T11:48:27;5.13;;;4.35;;
43700;SDS011;58809;47.984;7.964;2022-07-19T11:51:31;6.65;;;4.28;;
43700;SDS011;58809;47.984;7.964;2022-07-19T11:57:35;6.60;;;4.05;;
43700;SDS011;58809;47.984;7.964;2022-07-19T12:00:36;6.93;;;3.95;;
43700;SDS011;58809;47.984;7.964;2022-07-19T12:03:38;7.63;;;4.05;;
43700;SDS011;58809;47.984;7.964;2022-07-19T12:06:42;7.90;;;4.78;;
43700;SDS011;58809;47.984;7.964;2022-07-19T12:09:55;16.20;;;4.78;;
43700;SDS011;58809;47.984;7.964;2022-07-19T13:18:18;7.10;;;5.13;;
43700;SDS011;58809;47.984;7.964;2022-07-19T13:21:20;7.68;;;5.78;;
43700;SDS011;58809;47.984;7.964;2022-07-19T13:24:23;7.80;;;5.53;;
43700;SDS011;58809;47.984;7.964;2022-07-19T13:27:44;10.20;;;5.70;;
43700;SDS011;58809;47.984;7.964;2022-07-19T13:30:46;8.00;;;5.47;;
43700;SDS011;58809;47.984;7.964;2022-07-19T13:33:48;11.02;;;5.80;;
43700;SDS011;58809;47.984;7.964;2022-07-19T13:36:50;10.32;;;6.05;;
43700;SDS011;58809;47.984;7.964;2022-07-19T13:39:51;6.57;;;5.55;;
43700;SDS011;58809;47.984;7.964;2022-07-19T13:42:53;8.57;;;5.43;;
43700;SDS011;58809;47.984;7.964;2022-07-19T13:45:55;7.75;;;5.68;;
43700;SDS011;58809;47.984;7.964;2022-07-19T13:48:57;7.70;;;5.05;;
43700;SDS011;58809;47.984;7.964;2022-07-19T13:51:58;6.25;;;5.32;;
43700;SDS011;58809;47.984;7.964;2022-07-19T13:55:00;8.27;;;5.85;;
43700;SDS011;58809;47.984;7.964;2022-07-19T13:58:02;7.68;;;5.78;;
43700;SDS011;58809;47.984;7.964;2022-07-19T17:58:13;8.52;;;5.32;;
43700;SDS011;58809;47.984;7.964;2022-07-19T18:01:15;7.35;;;5.68;;
43700;SDS011;58809;47.984;7.964;2022-07-19T18:04:17;7.00;;;4.80;;
43700;SDS011;58809;47.984;7.964;2022-07-19T18:07:19;8.13;;;5.35;;
